Ashland, Montana
Current Conditions -  °F | °C
As of 11:53 AM on Tuesday 21 Oct 2014 (Local Time) from KMLS Reporting Station
Clear Clear  
Wind Chill: 16°   Ceiling: Unl
Heat Index: 16°   Visibility: 10mi
Dew Point:   Wind: 0mph
Humidity: 50%   Direction: NA
Pressure: 29.66"   Gusts: NA
Location:  45.62°N, 106.31°W
Report Text: KMLS 211753Z AUTO 00000KT 10SM CLR 16/06 A2966 RMK AO2 SLP036 T01610056 10161 20022 57015
Loading
Personal Weather Stations






























Interactive Weather Map
Tropical Storm Tracking
New forecast layout! Learn more

10-Day Weather Forecast

Advertisements
Track Severe Weather on mobile